createdAt,value
2023-05-21T00:00:20.797Z,102302.91
2023-05-21T00:02:49.818Z,102313.34
2023-05-21T00:05:19.158Z,102311.25
2023-05-21T00:07:47.299Z,102304.63
2023-05-21T00:10:16.420Z,102310.09
2023-05-21T00:12:43.106Z,102309.03
2023-05-21T00:15:10.208Z,102311.41
2023-05-21T00:17:41.949Z,102308.50
2023-05-21T00:20:09.463Z,102313.56
2023-05-21T00:22:36.411Z,102315.13
2023-05-21T00:25:06.465Z,102314.25
2023-05-21T00:27:33.232Z,102306.94
2023-05-21T00:29:59.988Z,102308.78
2023-05-21T00:32:26.724Z,102320.78
2023-05-21T00:34:53.501Z,102312.91
2023-05-21T00:37:20.916Z,102281.44
2023-05-21T00:39:48.000Z,102313.44
2023-05-21T00:42:18.335Z,102309.81
2023-05-21T00:44:48.396Z,102303.53
2023-05-21T00:47:18.367Z,102290.03
2023-05-21T00:49:45.154Z,102300.59
2023-05-21T00:52:12.098Z,102296.84
2023-05-21T00:54:39.563Z,102286.78
2023-05-21T00:57:08.551Z,102291.94
2023-05-21T00:59:35.436Z,102296.25
2023-05-21T01:02:05.577Z,102296.97
2023-05-21T01:04:32.808Z,102288.94
2023-05-21T01:06:59.625Z,102283.38
2023-05-21T01:09:29.378Z,102292.84
2023-05-21T01:11:56.750Z,102272.34
2023-05-21T01:14:25.059Z,102275.66
2023-05-21T01:16:57.092Z,102272.84
2023-05-21T01:19:24.862Z,102254.69
2023-05-21T01:22:04.322Z,102280.19
2023-05-21T01:24:31.505Z,102279.03
2023-05-21T01:27:00.146Z,102272.69
2023-05-21T01:29:26.967Z,102269.66
2023-05-21T01:32:11.198Z,102275.94
2023-05-21T01:35:06.682Z,102272.94
2023-05-21T01:37:46.200Z,102275.44
2023-05-21T01:40:38.349Z,102276.91
2023-05-21T01:43:07.082Z,102267.94
2023-05-21T01:45:42.617Z,102271.22
2023-05-21T01:48:10.314Z,102271.84
2023-05-21T01:50:41.090Z,102276.81
2023-05-21T01:53:07.989Z,102280.94
2023-05-21T01:55:35.840Z,102280.72
2023-05-21T01:58:04.962Z,102239.28
2023-05-21T02:00:32.722Z,102263.22
2023-05-21T02:03:02.142Z,102275.72
2023-05-21T02:05:29.012Z,102271.28
2023-05-21T02:07:55.955Z,102266.75
2023-05-21T02:10:25.144Z,102252.06
2023-05-21T02:12:52.029Z,102256.72
2023-05-21T02:15:19.335Z,102266.13
2023-05-21T02:17:46.718Z,102252.53
2023-05-21T02:20:14.045Z,102276.38
2023-05-21T02:22:41.804Z,102246.00
2023-05-21T02:25:10.134Z,102276.22
2023-05-21T02:27:37.862Z,102270.75
2023-05-21T02:30:07.053Z,102245.72
2023-05-21T02:32:42.536Z,102262.66
2023-05-21T02:35:11.417Z,102253.44
2023-05-21T02:37:40.545Z,102273.72
2023-05-21T02:40:08.380Z,102246.84
2023-05-21T02:42:36.655Z,102228.03
2023-05-21T02:45:03.689Z,102260.28
2023-05-21T02:47:30.498Z,102266.28
2023-05-21T02:49:59.904Z,102191.81
2023-05-21T02:52:26.719Z,102259.94
2023-05-21T02:54:53.820Z,102242.88
2023-05-21T02:57:21.012Z,102258.78
2023-05-21T02:59:47.755Z,102256.97
2023-05-21T03:02:16.791Z,102248.19
2023-05-21T03:04:46.848Z,102232.88
2023-05-21T03:07:14.929Z,102227.41
2023-05-21T03:09:42.505Z,102228.03
2023-05-21T03:12:09.577Z,102241.47
2023-05-21T03:14:36.643Z,102251.78
2023-05-21T03:17:06.510Z,102241.03
2023-05-21T03:19:37.139Z,102208.50
2023-05-21T03:22:04.721Z,102239.06
2023-05-21T03:24:31.868Z,102246.88
2023-05-21T03:26:59.434Z,102211.81
2023-05-21T03:29:30.884Z,102240.16
2023-05-21T03:31:58.146Z,102207.06
2023-05-21T03:34:27.669Z,102237.19
2023-05-21T03:36:54.292Z,102221.88
2023-05-21T03:39:23.457Z,102246.16
2023-05-21T03:41:50.209Z,102245.06
2023-05-21T03:44:17.036Z,102258.25
2023-05-21T03:46:45.575Z,102256.47
2023-05-21T03:49:12.386Z,102248.13
2023-05-21T03:51:39.753Z,102241.94
2023-05-21T03:54:06.705Z,102257.88
2023-05-21T03:56:38.209Z,102236.09
2023-05-21T03:59:05.125Z,102260.31
2023-05-21T04:01:33.185Z,102257.53
2023-05-21T04:04:00.026Z,102261.13
2023-05-21T04:06:26.786Z,102253.13
2023-05-21T04:08:55.839Z,102220.06
2023-05-21T04:11:22.680Z,102239.00
2023-05-21T04:13:50.399Z,102257.63
2023-05-21T04:16:19.373Z,102262.81
2023-05-21T04:18:52.436Z,102254.75
2023-05-21T04:21:19.243Z,102257.53
2023-05-21T04:23:46.264Z,102264.34
2023-05-21T04:26:13.278Z,102259.94
2023-05-21T04:28:42.142Z,102251.88
2023-05-21T04:31:13.062Z,102237.38
2023-05-21T04:33:42.227Z,102277.34
2023-05-21T04:36:12.044Z,102286.91
2023-05-21T04:38:39.953Z,102279.13
2023-05-21T04:41:10.982Z,102262.28
2023-05-21T04:43:38.364Z,102265.78
2023-05-21T04:46:07.760Z,102253.31
2023-05-21T04:48:34.481Z,102269.44
2023-05-21T04:51:01.102Z,102253.59
2023-05-21T04:53:27.857Z,102261.56
2023-05-21T04:55:54.526Z,102274.31
2023-05-21T04:58:21.257Z,102254.75
2023-05-21T05:00:50.900Z,102278.97
2023-05-21T05:03:20.004Z,102251.53
2023-05-21T05:05:47.310Z,102264.25
2023-05-21T05:08:15.730Z,102268.91
2023-05-21T05:10:43.029Z,102258.38
2023-05-21T05:13:09.988Z,102270.00
2023-05-21T05:15:37.163Z,102248.84
2023-05-21T05:18:04.163Z,102269.56
2023-05-21T05:20:30.941Z,102251.34
2023-05-21T05:22:57.633Z,102267.66
2023-05-21T05:25:26.924Z,102277.53
2023-05-21T05:27:56.179Z,102268.84
2023-05-21T05:30:25.117Z,102232.59
2023-05-21T05:32:51.887Z,102256.97
2023-05-21T05:35:21.086Z,102271.75
2023-05-21T05:37:47.739Z,102264.13
2023-05-21T05:40:14.568Z,102268.78
2023-05-21T05:42:41.268Z,102267.34
2023-05-21T05:45:08.505Z,102240.31
2023-05-21T05:47:35.211Z,102257.69
2023-05-21T05:50:02.123Z,102263.22
2023-05-21T05:52:28.804Z,102249.22
2023-05-21T05:55:00.271Z,102252.81
2023-05-21T05:57:26.956Z,102251.59
2023-05-21T05:59:56.347Z,102225.38
2023-05-21T06:02:23.155Z,102236.63
2023-05-21T06:04:50.028Z,102236.75
2023-05-21T06:07:16.743Z,102258.19
2023-05-21T06:09:45.848Z,102241.91
2023-05-21T06:12:15.973Z,102216.97
2023-05-21T06:14:45.166Z,102239.31
2023-05-21T06:17:12.550Z,102212.63
2023-05-21T06:19:42.084Z,102230.06
2023-05-21T06:22:08.782Z,102231.84
2023-05-21T06:24:40.249Z,102237.78
2023-05-21T06:27:07.081Z,102230.94
2023-05-21T06:29:33.861Z,102229.16
2023-05-21T06:32:01.846Z,102237.28
2023-05-21T06:34:28.998Z,102218.34
2023-05-21T06:36:55.801Z,102215.44
2023-05-21T06:39:25.204Z,102243.22
2023-05-21T06:41:51.978Z,102242.22
2023-05-21T06:44:18.754Z,102251.59
2023-05-21T06:46:50.357Z,102226.94
2023-05-21T06:49:19.281Z,102242.75
2023-05-21T06:51:46.249Z,102253.91
2023-05-21T06:54:13.164Z,102234.03
2023-05-21T06:56:42.702Z,102252.38
2023-05-21T06:59:12.184Z,102242.19
2023-05-21T07:01:42.574Z,102235.59
2023-05-21T07:04:10.136Z,102232.50
2023-05-21T07:06:37.876Z,102233.75
2023-05-21T07:09:07.422Z,102233.19
2023-05-21T07:11:36.626Z,102200.53
2023-05-21T07:14:04.099Z,102236.91
2023-05-21T07:16:31.028Z,102230.75
2023-05-21T07:19:00.042Z,102229.00
2023-05-21T07:21:26.812Z,102237.00
2023-05-21T07:23:53.486Z,102241.44
2023-05-21T07:26:20.181Z,102210.38
2023-05-21T07:28:47.033Z,102231.66
2023-05-21T07:31:16.091Z,102244.91
2023-05-21T07:33:42.938Z,102236.91
2023-05-21T07:36:11.923Z,102223.59
2023-05-21T07:38:40.278Z,102228.84
2023-05-21T07:41:07.004Z,102233.19
2023-05-21T07:43:36.040Z,102230.53
2023-05-21T07:46:05.467Z,102243.75
2023-05-21T07:48:35.530Z,102235.53
2023-05-21T07:51:04.140Z,102237.75
2023-05-21T07:53:33.599Z,102234.97
2023-05-21T07:56:01.037Z,102236.69
2023-05-21T07:58:27.801Z,102210.00
2023-05-21T08:00:54.536Z,102243.69
2023-05-21T08:03:21.334Z,102232.00
2023-05-21T08:05:53.560Z,102228.97
2023-05-21T08:08:22.141Z,102234.94
2023-05-21T08:10:49.531Z,102194.28
2023-05-21T08:13:17.258Z,102236.72
2023-05-21T08:15:44.094Z,102234.81
2023-05-21T08:18:13.066Z,102219.84
2023-05-21T08:20:40.431Z,102226.88
2023-05-21T08:23:09.635Z,102225.19
2023-05-21T08:25:38.728Z,102227.16
2023-05-21T08:28:05.858Z,102226.19
2023-05-21T08:30:32.507Z,102232.38
2023-05-21T08:33:02.492Z,102227.88
2023-05-21T08:35:29.286Z,102228.97
2023-05-21T08:37:58.983Z,102217.50
2023-05-21T08:40:25.680Z,102237.69
2023-05-21T08:42:52.537Z,102241.06
2023-05-21T08:45:25.382Z,102247.16
2023-05-21T08:48:00.021Z,102240.78
2023-05-21T08:50:30.230Z,102249.69
2023-05-21T08:52:58.984Z,102216.06
2023-05-21T08:55:27.068Z,102235.53
2023-05-21T08:57:55.219Z,102232.00
2023-05-21T09:00:24.411Z,102234.00
2023-05-21T09:02:54.623Z,102237.88
2023-05-21T09:05:22.731Z,102230.75
2023-05-21T09:08:13.931Z,102240.41
2023-05-21T09:10:48.199Z,102245.09
2023-05-21T09:13:17.339Z,102225.84
2023-05-21T09:15:48.182Z,102233.00
2023-05-21T09:18:15.329Z,102240.19
2023-05-21T09:20:42.246Z,102232.28
2023-05-21T09:23:16.833Z,102224.38
2023-05-21T09:25:52.095Z,102229.75
2023-05-21T09:28:19.702Z,102222.66
2023-05-21T09:30:48.352Z,102231.66
2023-05-21T09:33:29.817Z,102230.03
2023-05-21T09:35:58.886Z,102215.81
2023-05-21T09:38:29.610Z,102228.22
2023-05-21T09:41:01.536Z,102223.69
2023-05-21T09:43:28.847Z,102232.47
2023-05-21T09:46:02.007Z,102220.84
2023-05-21T09:48:43.076Z,102211.06
2023-05-21T09:51:21.370Z,102209.41
2023-05-21T09:53:54.378Z,102204.84
2023-05-21T09:56:29.460Z,102220.91
2023-05-21T09:58:57.781Z,102212.16
2023-05-21T10:01:25.459Z,102216.00
2023-05-21T10:03:57.329Z,102208.19
2023-05-21T10:06:33.787Z,102210.03
2023-05-21T10:09:05.953Z,102196.78
2023-05-21T10:11:37.222Z,102191.53
2023-05-21T10:14:09.202Z,102200.44
2023-05-21T10:16:37.214Z,102195.16
2023-05-21T10:19:05.402Z,102186.34
2023-05-21T10:21:34.949Z,102181.97
2023-05-21T10:24:05.114Z,102189.09
2023-05-21T10:26:34.254Z,102177.63
2023-05-21T10:29:02.452Z,102191.81
2023-05-21T10:31:29.836Z,102198.03
2023-05-21T10:33:57.189Z,102184.72
2023-05-21T10:36:31.103Z,102177.59
2023-05-21T10:39:00.239Z,102193.56
2023-05-21T10:41:32.104Z,102178.50
2023-05-21T10:44:11.257Z,102182.94
2023-05-21T10:47:02.819Z,102189.13
2023-05-21T10:49:51.981Z,102173.19
2023-05-21T10:52:34.057Z,102180.25
2023-05-21T10:55:32.991Z,102167.81
2023-05-21T10:58:02.673Z,102163.38
2023-05-21T11:00:31.683Z,102168.69
2023-05-21T11:03:05.938Z,102144.75
2023-05-21T11:06:02.710Z,102159.81
2023-05-21T11:08:36.282Z,102143.00
2023-05-21T11:11:08.558Z,102120.00
2023-05-21T11:13:49.344Z,102141.28
2023-05-21T11:16:17.194Z,102144.81
2023-05-21T11:18:46.945Z,102137.75
2023-05-21T11:21:21.142Z,102140.41
2023-05-21T11:23:53.242Z,102135.97
2023-05-21T11:26:24.473Z,102135.06
2023-05-21T11:29:03.357Z,102134.94
2023-05-21T11:31:38.425Z,102130.44
2023-05-21T11:34:11.381Z,102145.38
2023-05-21T11:36:39.125Z,102123.19
2023-05-21T11:39:17.893Z,102122.19
2023-05-21T11:41:53.539Z,102119.63
2023-05-21T11:44:41.731Z,102118.81
2023-05-21T11:47:10.172Z,102111.81
2023-05-21T11:49:37.780Z,102114.44
2023-05-21T11:52:06.564Z,102098.53
2023-05-21T11:54:37.626Z,102103.84
2023-05-21T11:57:10.638Z,102106.47
2023-05-21T11:59:37.595Z,102104.69
2023-05-21T12:02:05.068Z,102117.03
2023-05-21T12:04:36.489Z,102117.91
2023-05-21T12:07:09.756Z,102108.13
2023-05-21T12:09:50.602Z,102117.03
2023-05-21T12:12:22.434Z,102139.19
2023-05-21T12:14:53.360Z,102117.09
2023-05-21T12:17:22.165Z,102110.09
2023-05-21T12:19:51.669Z,102115.41
2023-05-21T12:22:21.527Z,102116.19
2023-05-21T12:24:51.070Z,102115.25
2023-05-21T12:27:20.490Z,102115.19
2023-05-21T12:29:50.058Z,102114.31
2023-05-21T12:32:22.666Z,102087.56
2023-05-21T12:34:54.907Z,102098.16
2023-05-21T12:37:31.452Z,102112.31
2023-05-21T12:40:07.840Z,102101.72
2023-05-21T12:42:37.721Z,102107.94
2023-05-21T12:45:10.682Z,102109.72
2023-05-21T12:47:37.861Z,102123.88
2023-05-21T12:50:12.299Z,102127.44
2023-05-21T12:52:42.979Z,102121.19
2023-05-21T12:55:11.844Z,102114.09
2023-05-21T12:57:39.112Z,102122.88
2023-05-21T13:00:07.654Z,102119.19
2023-05-21T13:02:42.679Z,102124.31
2023-05-21T13:05:15.862Z,102122.47
2023-05-21T13:07:44.166Z,102110.03
2023-05-21T13:10:12.396Z,102115.31
2023-05-21T13:12:41.186Z,102132.19
2023-05-21T13:15:10.929Z,102125.19
2023-05-21T13:17:37.767Z,102125.22
2023-05-21T13:20:12.361Z,102132.28
2023-05-21T13:22:47.634Z,102132.38
2023-05-21T13:25:21.849Z,102141.25
2023-05-21T13:27:49.974Z,102145.69
2023-05-21T13:30:22.774Z,102143.09
2023-05-21T13:32:49.947Z,102136.91
2023-05-21T13:35:19.171Z,102139.53
2023-05-21T13:37:46.086Z,102136.81
2023-05-21T13:40:15.308Z,102143.91
2023-05-21T13:42:44.102Z,102141.22
2023-05-21T13:45:13.167Z,102147.41
2023-05-21T13:47:40.731Z,102136.81
2023-05-21T13:50:08.865Z,102139.44
2023-05-21T13:52:36.094Z,102118.97
2023-05-21T13:55:04.993Z,102152.59
2023-05-21T13:57:34.140Z,102126.00
2023-05-21T14:00:01.314Z,102128.59
2023-05-21T14:02:30.924Z,102138.31
2023-05-21T14:04:57.627Z,102129.44
2023-05-21T14:07:24.425Z,102125.00
2023-05-21T14:09:53.902Z,102125.13
2023-05-21T14:12:20.760Z,102126.06
2023-05-21T14:14:49.878Z,102118.97
2023-05-21T14:17:16.961Z,102124.13
2023-05-21T14:19:46.062Z,102100.13
2023-05-21T14:22:13.262Z,102118.78
2023-05-21T14:24:40.055Z,102112.59
2023-05-21T14:27:06.717Z,102128.66
2023-05-21T14:29:33.565Z,102095.91
2023-05-21T14:32:00.308Z,102106.47
2023-05-21T14:34:27.152Z,102098.44
2023-05-21T14:36:56.162Z,102111.66
2023-05-21T14:39:23.134Z,102115.16
2023-05-21T14:41:52.377Z,102118.66
2023-05-21T14:44:21.269Z,102106.22
2023-05-21T14:46:48.072Z,102098.22
2023-05-21T14:49:14.782Z,102099.97
2023-05-21T14:51:43.783Z,102108.84
2023-05-21T14:54:10.508Z,102098.31
2023-05-21T14:56:39.716Z,102090.38
2023-05-21T14:59:11.366Z,102102.94
2023-05-21T15:01:38.342Z,102102.06
2023-05-21T15:04:08.131Z,102112.63
2023-05-21T15:06:37.456Z,102107.22
2023-05-21T15:09:04.221Z,102086.84
2023-05-21T15:11:31.034Z,102100.16
2023-05-21T15:13:59.932Z,102085.09
2023-05-21T15:16:28.956Z,102102.66
2023-05-21T15:18:56.073Z,102102.50
2023-05-21T15:21:27.834Z,102099.72
2023-05-21T15:23:54.773Z,102099.69
2023-05-21T15:26:21.773Z,102093.47
2023-05-21T15:28:48.676Z,102101.41
2023-05-21T15:31:15.440Z,102082.81
2023-05-21T15:33:45.288Z,102088.13
2023-05-21T15:36:12.071Z,102094.38
2023-05-21T15:38:38.792Z,102090.94
2023-05-21T15:41:08.394Z,102087.50
2023-05-21T15:43:35.731Z,102068.88
2023-05-21T15:46:02.735Z,102086.59
2023-05-21T15:48:29.551Z,102089.13
2023-05-21T15:50:58.543Z,102089.84
2023-05-21T15:53:25.328Z,102092.31
2023-05-21T15:55:52.090Z,102079.97
2023-05-21T15:58:19.092Z,102066.69
2023-05-21T16:00:48.964Z,102091.66
2023-05-21T16:03:17.806Z,102075.78
2023-05-21T16:05:44.568Z,102096.13
2023-05-21T16:08:12.246Z,102095.13
2023-05-21T16:10:40.072Z,102100.22
2023-05-21T16:13:09.084Z,102094.75
2023-05-21T16:15:36.156Z,102099.91
2023-05-21T16:18:03.158Z,102090.19
2023-05-21T16:20:30.889Z,102080.28
2023-05-21T16:22:57.561Z,102076.88
2023-05-21T16:25:26.582Z,102066.22
2023-05-21T16:27:53.251Z,102060.16
2023-05-21T16:30:20.098Z,102091.34
2023-05-21T16:32:46.805Z,102079.03
2023-05-21T16:35:15.789Z,102070.25
2023-05-21T16:37:42.500Z,102071.22
2023-05-21T16:40:09.865Z,102093.38
2023-05-21T16:42:39.902Z,102069.31
2023-05-21T16:45:07.042Z,102088.78
2023-05-21T16:47:33.724Z,102076.28
2023-05-21T16:50:01.840Z,102078.09
2023-05-21T16:52:30.852Z,102081.63
2023-05-21T16:54:57.533Z,102084.25
2023-05-21T16:57:26.676Z,102074.53
2023-05-21T16:59:53.598Z,102083.44
2023-05-21T17:02:20.453Z,102079.94
2023-05-21T17:04:47.897Z,102066.66
2023-05-21T17:07:15.715Z,102085.25
2023-05-21T17:09:42.614Z,102079.94
2023-05-21T17:12:11.684Z,102069.28
2023-05-21T17:14:40.388Z,102077.25
2023-05-21T17:17:09.896Z,102076.41
2023-05-21T17:19:37.404Z,102076.38
2023-05-21T17:22:04.649Z,102069.28
2023-05-21T17:24:31.361Z,102071.94
2023-05-21T17:26:58.124Z,102079.88
2023-05-21T17:29:24.857Z,102046.09
2023-05-21T17:31:51.587Z,102073.66
2023-05-21T17:34:21.340Z,102075.41
2023-05-21T17:36:48.040Z,102068.28
2023-05-21T17:39:14.815Z,102070.03
2023-05-21T17:41:43.733Z,102074.38
2023-05-21T17:44:13.732Z,102062.91
2023-05-21T17:46:40.611Z,102066.47
2023-05-21T17:49:08.946Z,102053.19
2023-05-21T17:51:37.160Z,102070.88
2023-05-21T17:54:04.683Z,102059.38
2023-05-21T17:56:38.851Z,102061.06
2023-05-21T17:59:12.121Z,102061.06
2023-05-21T18:01:40.146Z,102072.50
2023-05-21T18:04:12.298Z,102072.47
2023-05-21T18:06:41.929Z,102070.66
2023-05-21T18:09:10.578Z,102063.59
2023-05-21T18:11:39.585Z,102063.50
2023-05-21T18:14:06.279Z,102065.19
2023-05-21T18:16:33.114Z,102056.22
2023-05-21T18:19:05.791Z,102084.50
2023-05-21T18:21:35.166Z,102079.19
2023-05-21T18:24:02.648Z,102074.75
2023-05-21T18:26:32.443Z,102060.56
2023-05-21T18:29:01.880Z,102067.53
2023-05-21T18:31:28.714Z,102007.94
2023-05-21T18:33:55.472Z,102065.63
2023-05-21T18:36:24.358Z,102061.97
2023-05-21T18:38:53.456Z,102054.88
2023-05-21T18:41:23.873Z,102071.63
2023-05-21T18:43:50.629Z,102079.50
2023-05-21T18:46:17.324Z,102075.00
2023-05-21T18:48:44.080Z,102074.97
2023-05-21T18:51:10.848Z,102074.94
2023-05-21T18:53:40.523Z,102073.94
2023-05-21T18:56:10.385Z,102084.47
2023-05-21T18:58:38.155Z,102083.56
2023-05-21T19:01:06.443Z,102063.03
2023-05-21T19:03:35.564Z,102086.06
2023-05-21T19:06:02.364Z,102077.16
2023-05-21T19:08:29.626Z,102089.47
2023-05-21T19:10:56.358Z,102085.94
2023-05-21T19:13:23.538Z,102086.75
2023-05-21T19:15:50.280Z,102067.13
2023-05-21T19:18:17.423Z,102063.44
2023-05-21T19:20:44.206Z,102088.28
2023-05-21T19:23:11.118Z,102086.41
2023-05-21T19:25:38.448Z,102099.59
2023-05-21T19:28:05.583Z,102097.72
2023-05-21T19:30:35.007Z,102093.91
2023-05-21T19:33:02.082Z,102092.97
2023-05-21T19:35:28.944Z,102097.22
2023-05-21T19:37:59.536Z,102108.50
2023-05-21T19:40:29.580Z,102098.75
2023-05-21T19:43:01.125Z,102086.97
2023-05-21T19:45:28.050Z,102075.41
2023-05-21T19:47:54.816Z,102088.66
2023-05-21T19:50:23.792Z,102087.66
2023-05-21T19:52:50.842Z,102087.41
2023-05-21T19:55:20.433Z,102104.22
2023-05-21T19:57:47.590Z,102107.66
2023-05-21T20:00:16.663Z,102089.84
2023-05-21T20:02:43.617Z,102121.53
2023-05-21T20:05:10.516Z,102115.25
2023-05-21T20:07:39.944Z,102072.25
2023-05-21T20:10:11.528Z,102131.59
2023-05-21T20:12:38.546Z,102128.91
2023-05-21T20:15:07.049Z,102132.38
2023-05-21T20:17:39.349Z,102142.81
2023-05-21T20:20:10.312Z,102139.91
2023-05-21T20:22:37.178Z,102146.94
2023-05-21T20:25:08.586Z,102121.91
2023-05-21T20:27:35.805Z,102150.25
2023-05-21T20:30:02.502Z,102136.69
2023-05-21T20:32:29.200Z,102157.13
2023-05-21T20:35:03.309Z,102154.41
2023-05-21T20:37:33.959Z,102156.91
2023-05-21T20:40:02.931Z,102147.84
2023-05-21T20:42:34.429Z,102149.56
2023-05-21T20:45:01.906Z,102164.66
2023-05-21T20:47:31.540Z,102167.19
2023-05-21T20:50:00.160Z,102133.13
2023-05-21T20:52:27.098Z,102169.56
2023-05-21T20:54:59.637Z,102165.81
2023-05-21T20:57:27.481Z,102161.28
2023-05-21T20:59:54.570Z,102169.13
2023-05-21T21:02:21.734Z,102162.72
2023-05-21T21:04:49.974Z,102171.38
2023-05-21T21:07:20.475Z,102147.28
2023-05-21T21:09:48.524Z,102163.88
2023-05-21T21:12:25.792Z,102155.72
2023-05-21T21:14:54.248Z,102172.97
2023-05-21T21:17:21.267Z,102163.84
2023-05-21T21:19:48.027Z,102174.22
2023-05-21T21:22:16.087Z,102179.25
2023-05-21T21:24:42.844Z,102155.00
2023-05-21T21:27:09.553Z,102185.91
2023-05-21T21:29:38.462Z,102163.34
2023-05-21T21:32:05.819Z,102191.53
2023-05-21T21:34:32.473Z,102185.22
2023-05-21T21:37:01.399Z,102188.53
2023-05-21T21:39:30.165Z,102186.53
2023-05-21T21:41:56.917Z,102164.72
2023-05-21T21:44:26.059Z,102185.91
2023-05-21T21:46:55.084Z,102191.91
2023-05-21T21:49:21.763Z,102190.59
2023-05-21T21:51:49.074Z,102177.06
2023-05-21T21:54:15.874Z,102198.25
2023-05-21T21:56:43.784Z,102170.53
2023-05-21T21:59:10.475Z,102187.41
2023-05-21T22:01:37.317Z,102187.22
2023-05-21T22:04:04.232Z,102195.75
2023-05-21T22:06:31.367Z,102192.00
2023-05-21T22:08:58.087Z,102191.78
2023-05-21T22:11:27.038Z,102186.28
2023-05-21T22:13:56.400Z,102155.84
2023-05-21T22:16:25.577Z,102186.75
2023-05-21T22:18:54.360Z,102187.44
2023-05-21T22:21:21.565Z,102195.88
2023-05-21T22:23:48.359Z,102168.97
2023-05-21T22:26:15.111Z,102189.19
2023-05-21T22:28:44.126Z,102191.63
2023-05-21T22:31:10.812Z,102186.16
2023-05-21T22:33:37.495Z,102188.63
2023-05-21T22:36:04.543Z,102175.88
2023-05-21T22:38:31.235Z,102189.00
2023-05-21T22:41:00.182Z,102199.31
2023-05-21T22:43:27.338Z,102176.06
2023-05-21T22:45:54.162Z,102189.16
2023-05-21T22:48:22.104Z,102181.91
2023-05-21T22:50:50.251Z,102189.59
2023-05-21T22:53:19.584Z,102187.63
2023-05-21T22:55:48.704Z,102163.41
2023-05-21T22:58:17.739Z,102195.16
2023-05-21T23:00:44.572Z,102191.47
2023-05-21T23:03:11.544Z,102187.75
2023-05-21T23:05:40.884Z,102198.03
2023-05-21T23:08:07.808Z,102197.03
2023-05-21T23:10:35.557Z,102194.06
2023-05-21T23:13:02.366Z,102189.53
2023-05-21T23:15:29.662Z,102192.16
2023-05-21T23:17:57.127Z,102200.69
2023-05-21T23:20:25.964Z,102197.88
2023-05-21T23:22:52.750Z,102210.06
2023-05-21T23:25:22.382Z,102207.34
2023-05-21T23:27:49.152Z,102177.72
2023-05-21T23:30:16.186Z,102188.31
2023-05-21T23:32:44.967Z,102199.81
2023-05-21T23:35:11.737Z,102199.97
2023-05-21T23:37:38.465Z,102199.81
2023-05-21T23:40:05.793Z,102204.16
2023-05-21T23:42:32.466Z,102192.59
2023-05-21T23:44:59.188Z,102180.34
2023-05-21T23:47:25.995Z,102157.81
2023-05-21T23:49:53.123Z,102188.00
2023-05-21T23:52:19.839Z,102160.38
2023-05-21T23:54:47.505Z,102173.72
2023-05-21T23:57:14.364Z,102168.44
2023-05-21T23:59:41.141Z,102154.13
